Time;durP1;ratioP1;P1;durP2;ratioP2;P2;SDS_P1;SDS_P2;PMS_P1;PMS_P2;Temp;Humidity;BMP_temperature;BMP_pressure;BME280_temperature;BME280_humidity;BME280_pressure;Samples;Min_cycle;Max_cycle;Signal;HPM_P1;HPM_P2
2023/05/05 00:00:55;;;;;;;9.97;6.30;;;15.60;99.90;;;;;;4589790;19;20015;-23
2023/05/05 00:02:28;;;;;;;15.35;5.25;;;15.60;99.90;;;;;;4589981;19;20006;-23
2023/05/05 00:04:00;;;;;;;10.07;5.83;;;15.60;99.90;;;;;;4590301;19;20018;-23
2023/05/05 00:05:31;;;;;;;8.90;5.78;;;15.60;99.90;;;;;;4589739;19;20341;-24
2023/05/05 00:07:02;;;;;;;;;;;15.60;99.90;;;;;;4590620;19;20026;-23
2023/05/05 00:08:34;;;;;;;9.37;4.77;;;15.60;99.90;;;;;;4589348;19;20313;-24
2023/05/05 00:10:05;;;;;;;10.43;6.43;;;15.60;99.90;;;;;;4588444;19;20010;-23
2023/05/05 00:11:36;;;;;;;;;;;15.60;99.90;;;;;;4592024;19;20010;-23
2023/05/05 00:13:08;;;;;;;7.90;4.87;;;15.60;99.90;;;;;;4594849;19;19922;-23
2023/05/05 00:14:40;;;;;;;10.27;5.22;;;15.60;99.90;;;;;;4593696;19;20014;-23
2023/05/05 00:16:12;;;;;;;8.20;5.27;;;15.60;99.90;;;;;;4594483;19;20014;-23
2023/05/05 00:17:43;;;;;;;10.80;5.30;;;15.60;99.90;;;;;;4594316;19;20382;-23
2023/05/05 00:19:15;;;;;;;8.87;4.90;;;15.60;99.90;;;;;;4594635;19;20035;-23
2023/05/05 00:20:47;;;;;;;10.65;5.32;;;15.60;99.90;;;;;;4595024;19;20011;-23
2023/05/05 00:22:18;;;;;;;10.80;5.10;;;15.60;99.90;;;;;;4594145;19;20014;-23
2023/05/05 00:23:50;;;;;;;13.32;4.57;;;15.50;99.90;;;;;;4594212;19;20010;-23
2023/05/05 00:25:21;;;;;;;;;;;15.60;99.90;;;;;;4595187;19;20011;-23
2023/05/05 00:26:52;;;;;;;9.13;4.90;;;15.60;99.90;;;;;;4595082;19;19922;-24
2023/05/05 00:28:23;;;;;;;9.95;5.07;;;15.50;99.90;;;;;;4593592;19;20007;-23
2023/05/05 00:29:56;;;;;;;9.87;5.03;;;15.60;99.90;;;;;;4594376;19;20042;-24
2023/05/05 00:31:29;;;;;;;10.33;4.63;;;15.50;99.90;;;;;;4594756;19;19999;-24
2023/05/05 00:33:00;;;;;;;8.98;5.07;;;15.50;99.90;;;;;;4594490;19;20481;-23
2023/05/05 00:34:32;;;;;;;11.13;4.90;;;15.50;99.90;;;;;;4593925;19;20018;-23
2023/05/05 00:36:05;;;;;;;9.67;5.17;;;15.50;99.90;;;;;;4591534;19;20417;-23
2023/05/05 00:37:37;;;;;;;8.23;4.87;;;15.50;99.90;;;;;;4593336;19;20010;-23
2023/05/05 00:39:09;;;;;;;;;;;15.50;99.90;;;;;;4594770;19;20018;-23
2023/05/05 00:40:40;;;;;;;13.57;5.17;;;15.50;99.90;;;;;;4593381;19;20245;-23
2023/05/05 00:42:12;;;;;;;8.90;5.20;;;15.50;99.90;;;;;;4592415;19;20051;-24
2023/05/05 00:43:45;;;;;;;8.83;4.63;;;15.50;99.90;;;;;;4594634;19;20006;-23
2023/05/05 00:45:17;;;;;;;7.45;4.40;;;15.50;99.90;;;;;;4593590;19;20011;-24
2023/05/05 00:46:48;;;;;;;8.03;4.57;;;15.50;99.90;;;;;;4592644;19;20010;-23
2023/05/05 00:48:23;;;;;;;9.20;4.77;;;15.50;99.90;;;;;;4592415;19;20011;-24
2023/05/05 00:49:54;;;;;;;8.20;4.57;;;15.50;99.90;;;;;;4593664;19;20021;-24
2023/05/05 00:51:27;;;;;;;8.83;4.93;;;15.50;99.90;;;;;;4593761;19;20014;-24
2023/05/05 00:53:03;;;;;;;12.00;4.95;;;15.50;99.90;;;;;;4592750;19;20475;-24
2023/05/05 00:54:34;;;;;;;9.47;4.80;;;15.50;99.90;;;;;;4593430;19;20006;-23
2023/05/05 00:56:06;;;;;;;6.93;4.50;;;15.50;99.90;;;;;;4594081;19;20010;-23
2023/05/05 00:57:37;;;;;;;;;;;15.50;99.90;;;;;;4593296;19;20074;-24
2023/05/05 00:59:08;;;;;;;9.73;4.87;;;15.50;99.90;;;;;;4593182;19;19921;-23
2023/05/05 01:00:40;;;;;;;;;;;15.50;99.90;;;;;;4594513;19;20003;-23
2023/05/05 01:02:12;;;;;;;7.75;4.35;;;15.50;99.90;;;;;;4594027;19;19918;-24
2023/05/05 01:03:43;;;;;;;10.13;5.05;;;15.50;99.90;;;;;;4592343;19;20031;-24
2023/05/05 01:05:16;;;;;;;8.37;5.47;;;15.50;99.90;;;;;;4592923;19;20010;-23
2023/05/05 01:07:00;;;;;;;9.33;4.80;;;15.50;99.90;;;;;;4592553;19;20351;-24
2023/05/05 01:09:00;;;;;;;9.37;4.60;;;15.50;99.90;;;;;;4591436;19;20346;-23
2023/05/05 01:10:43;;;;;;;6.67;4.40;;;15.50;99.90;;;;;;4590989;19;20036;-23
2023/05/05 01:12:31;;;;;;;10.95;5.35;;;15.50;99.90;;;;;;4591323;19;20024;-24
2023/05/05 01:14:21;;;;;;;7.63;4.10;;;15.50;99.90;;;;;;4591177;19;20356;-23
2023/05/05 01:16:11;;;;;;;6.67;4.43;;;15.50;99.90;;;;;;4591107;19;20034;-24
2023/05/05 01:17:47;;;;;;;7.37;4.20;;;15.50;99.90;;;;;;4591456;19;20012;-23
2023/05/05 01:19:27;;;;;;;8.47;4.67;;;15.50;99.90;;;;;;4591270;19;20424;-23
2023/05/05 01:21:13;;;;;;;8.23;4.57;;;15.50;99.90;;;;;;4591161;19;20007;-24
2023/05/05 01:22:53;;;;;;;7.97;4.30;;;15.50;99.90;;;;;;4590623;19;20011;-23
2023/05/05 01:24:55;;;;;;;9.03;4.10;;;15.50;99.90;;;;;;4591016;19;20006;-24
2023/05/05 01:27:04;;;;;;;9.88;4.55;;;15.50;99.90;;;;;;4590431;19;20021;-23
2023/05/05 01:29:00;;;;;;;11.63;5.03;;;15.50;99.90;;;;;;4590140;19;20074;-24
2023/05/05 01:31:04;;;;;;;7.97;4.27;;;15.50;99.90;;;;;;4590505;19;20472;-23
2023/05/05 01:32:47;;;;;;;8.43;4.10;;;15.40;99.90;;;;;;4590416;19;20014;-23
2023/05/05 01:34:26;;;;;;;6.43;4.07;;;15.40;99.90;;;;;;4590785;19;20006;-23
2023/05/05 01:36:09;;;;;;;6.33;3.97;;;15.50;99.90;;;;;;4590803;19;20014;-23
2023/05/05 01:37:54;;;;;;;10.13;4.53;;;15.40;99.90;;;;;;4591143;19;20036;-23
2023/05/05 01:39:27;;;;;;;8.13;4.37;;;15.50;99.90;;;;;;4590355;19;20010;-23
2023/05/05 01:41:10;;;;;;;8.20;4.00;;;15.50;99.90;;;;;;4589596;19;20017;-23
2023/05/05 01:42:43;;;;;;;10.13;4.23;;;15.50;99.90;;;;;;4590277;19;20086;-24
2023/05/05 01:44:15;;;;;;;9.80;3.70;;;15.50;99.90;;;;;;4590756;19;20333;-23
2023/05/05 01:45:46;;;;;;;7.40;4.15;;;15.50;99.90;;;;;;4590504;19;20026;-23
2023/05/05 01:47:18;;;;;;;9.35;3.58;;;15.50;99.90;;;;;;4589990;19;20121;-23
2023/05/05 01:48:51;;;;;;;9.27;4.53;;;15.50;99.90;;;;;;4590945;19;20011;-24
2023/05/05 01:50:22;;;;;;;;;;;15.50;99.90;;;;;;4592085;19;20365;-23
2023/05/05 01:51:54;;;;;;;7.60;4.40;;;15.50;99.90;;;;;;4591878;19;19918;-23
2023/05/05 01:53:27;;;;;;;7.27;3.80;;;15.50;99.90;;;;;;4591305;19;20006;-23
2023/05/05 01:54:58;;;;;;;9.98;4.63;;;15.50;99.90;;;;;;4592118;19;20022;-23
2023/05/05 01:56:29;;;;;;;7.15;4.20;;;15.50;99.90;;;;;;4591941;19;20024;-23
2023/05/05 01:58:02;;;;;;;7.07;4.57;;;15.40;99.90;;;;;;4591038;19;20358;-23
2023/05/05 01:59:34;;;;;;;9.37;4.87;;;15.40;99.90;;;;;;4591998;19;20020;-23
2023/05/05 02:01:07;;;;;;;8.03;4.07;;;15.50;99.90;;;;;;4591060;19;20010;-23
2023/05/05 02:02:38;;;;;;;8.50;4.35;;;15.50;99.90;;;;;;4591218;19;20017;-23
2023/05/05 02:04:10;;;;;;;5.37;3.40;;;15.50;99.90;;;;;;4591004;19;20017;-24
2023/05/05 02:05:42;;;;;;;8.15;4.03;;;15.50;99.90;;;;;;4591721;19;20476;-23
2023/05/05 02:07:13;;;;;;;7.43;3.65;;;15.50;99.90;;;;;;4590967;19;20010;-24
2023/05/05 02:08:45;;;;;;;6.33;3.90;;;15.50;99.90;;;;;;4588757;19;19999;-23
2023/05/05 02:10:18;;;;;;;6.23;4.30;;;15.50;99.90;;;;;;4590593;19;20014;-23
2023/05/05 02:11:49;;;;;;;8.65;4.22;;;15.50;99.90;;;;;;4591746;19;20040;-23
2023/05/05 02:13:22;;;;;;;6.97;3.30;;;15.50;99.90;;;;;;4591257;19;20031;-23
2023/05/05 02:14:57;;;;;;;7.93;4.20;;;15.50;99.90;;;;;;4590670;19;20074;-23
2023/05/05 02:16:29;;;;;;;7.20;3.83;;;15.50;99.90;;;;;;4590687;19;20014;-23
2023/05/05 02:18:01;;;;;;;8.33;4.53;;;15.50;99.80;;;;;;4590814;19;20028;-23
2023/05/05 02:19:33;;;;;;;;;;;15.40;99.80;;;;;;4592072;19;20026;-23
2023/05/05 02:21:04;;;;;;;8.38;3.85;;;15.40;99.70;;;;;;4590587;19;19911;-23
2023/05/05 02:22:37;;;;;;;7.00;3.63;;;15.40;99.40;;;;;;4590688;19;20021;-24
2023/05/05 02:24:08;;;;;;;8.93;3.50;;;15.40;99.20;;;;;;4591417;19;20121;-23
2023/05/05 02:25:41;;;;;;;5.38;3.50;;;15.40;99.20;;;;;;4592318;19;20014;-23
2023/05/05 02:27:16;;;;;;;6.07;3.70;;;15.40;99.30;;;;;;4590327;19;20010;-23
2023/05/05 02:29:07;;;;;;;5.80;3.47;;;15.40;99.40;;;;;;4588412;19;20484;-23
2023/05/05 02:30:40;;;;;;;8.10;3.92;;;15.40;99.30;;;;;;4589577;19;20014;-24
2023/05/05 02:32:29;;;;;;;5.93;3.50;;;15.40;99.10;;;;;;4589899;19;20045;-24
2023/05/05 02:34:00;;;;;;;7.23;3.90;;;15.40;99.00;;;;;;4588258;19;20019;-24
2023/05/05 02:35:37;;;;;;;5.75;3.25;;;15.40;98.70;;;;;;4589096;19;20476;-23
2023/05/05 02:37:11;;;;;;;5.67;3.23;;;15.40;98.80;;;;;;4589362;19;20007;-23
2023/05/05 02:38:42;;;;;;;11.00;4.57;;;15.40;98.80;;;;;;4589283;19;20014;-23
2023/05/05 02:40:20;;;;;;;7.93;3.30;;;15.40;99.00;;;;;;4589775;19;20086;-24
2023/05/05 02:41:53;;;;;;;7.10;3.20;;;15.40;98.90;;;;;;4588176;19;20018;-24
2023/05/05 02:43:25;;;;;;;5.53;3.42;;;15.40;98.60;;;;;;4589275;19;20034;-23
2023/05/05 02:44:58;;;;;;;7.57;3.90;;;15.40;98.60;;;;;;4589400;19;20002;-23
2023/05/05 02:46:31;;;;;;;8.15;3.15;;;15.40;98.50;;;;;;4589630;19;20538;-23
2023/05/05 02:48:03;;;;;;;7.35;3.28;;;15.40;98.50;;;;;;4589002;19;20014;-24
2023/05/05 02:49:36;;;;;;;9.07;2.97;;;15.40;98.50;;;;;;4587747;19;20354;-23
2023/05/05 02:51:10;;;;;;;6.13;3.00;;;15.40;98.20;;;;;;4589117;19;20014;-23
2023/05/05 02:52:41;;;;;;;5.97;3.03;;;15.40;98.10;;;;;;4589398;19;20010;-23
2023/05/05 02:54:13;;;;;;;7.30;3.60;;;15.40;98.10;;;;;;4588739;19;20515;-23
2023/05/05 02:55:52;;;;;;;6.78;3.40;;;15.40;98.30;;;;;;4589140;19;20011;-24
2023/05/05 02:57:58;;;;;;;8.03;2.80;;;15.40;98.10;;;;;;4588785;19;20108;-24
2023/05/05 02:59:51;;;;;;;6.37;2.87;;;15.40;97.90;;;;;;4588560;19;20394;-24
2023/05/05 03:01:28;;;;;;;8.13;3.00;;;15.30;97.60;;;;;;4589114;19;19999;-24
2023/05/05 03:03:06;;;;;;;10.63;3.17;;;15.30;97.50;;;;;;4588458;19;19999;-23
2023/05/05 03:04:40;;;;;;;6.57;2.90;;;15.30;97.90;;;;;;4588252;19;20015;-23
2023/05/05 03:06:20;;;;;;;6.60;3.03;;;15.30;97.60;;;;;;4588268;19;20015;-23
2023/05/05 03:08:02;;;;;;;5.82;3.00;;;15.30;97.70;;;;;;4588526;19;20046;-24
2023/05/05 03:09:39;;;;;;;5.30;2.80;;;15.30;97.90;;;;;;4587573;19;20006;-23
2023/05/05 03:11:22;;;;;;;5.57;3.03;;;15.40;98.00;;;;;;4588418;19;20003;-23
2023/05/05 03:12:55;;;;;;;5.93;2.57;;;15.40;97.70;;;;;;4588505;19;20028;-24
2023/05/05 03:14:28;;;;;;;5.87;2.57;;;15.40;97.90;;;;;;4588446;19;20070;-23
2023/05/05 03:16:03;;;;;;;9.17;2.80;;;15.40;97.90;;;;;;4588457;19;20050;-23
2023/05/05 03:17:35;;;;;;;5.93;3.00;;;15.40;97.80;;;;;;4588553;19;20014;-23
2023/05/05 03:19:07;;;;;;;;;;;15.40;97.80;;;;;;4589342;19;20017;-24
2023/05/05 03:20:39;;;;;;;7.03;2.92;;;15.40;98.00;;;;;;4588349;19;20267;-23
2023/05/05 03:22:10;;;;;;;7.63;3.05;;;15.40;98.00;;;;;;4588286;19;20006;-24
2023/05/05 03:23:41;;;;;;;6.03;3.10;;;15.40;98.00;;;;;;4588139;19;20078;-24
2023/05/05 03:25:12;;;;;;;6.10;2.40;;;15.40;98.20;;;;;;4588392;19;20025;-23
2023/05/05 03:26:46;;;;;;;6.33;2.80;;;15.40;98.00;;;;;;4588539;19;20010;-23
2023/05/05 03:28:17;;;;;;;5.90;2.80;;;15.40;98.00;;;;;;4588085;19;20003;-23
2023/05/05 03:29:49;;;;;;;5.77;2.90;;;15.40;98.10;;;;;;4587951;19;20029;-23
2023/05/05 03:31:21;;;;;;;7.47;2.65;;;15.40;98.00;;;;;;4588070;19;20011;-23
2023/05/05 03:32:52;;;;;;;4.95;2.85;;;15.30;97.90;;;;;;4588691;19;20018;-23
2023/05/05 03:34:23;;;;;;;4.95;2.72;;;15.30;98.00;;;;;;4588383;19;20090;-23
2023/05/05 03:35:54;;;;;;;7.88;3.40;;;15.30;98.00;;;;;;4587766;19;20011;-23
2023/05/05 03:37:27;;;;;;;7.20;3.67;;;15.30;98.00;;;;;;4588307;19;20014;-23
2023/05/05 03:38:58;;;;;;;6.90;3.60;;;15.30;98.10;;;;;;4588509;19;20078;-24
2023/05/05 03:40:31;;;;;;;8.27;3.70;;;15.30;98.10;;;;;;4589320;19;20010;-23
2023/05/05 03:42:03;;;;;;;8.03;2.40;;;15.30;98.10;;;;;;4588756;19;20022;-23
2023/05/05 03:43:38;;;;;;;7.03;3.10;;;15.30;98.10;;;;;;4587727;19;20484;-23
2023/05/05 03:45:10;;;;;;;6.27;2.83;;;15.30;98.30;;;;;;4589773;19;20357;-24
2023/05/05 03:46:41;;;;;;;4.60;2.65;;;15.30;98.20;;;;;;4588553;19;20026;-23
2023/05/05 03:48:13;;;;;;;5.05;3.20;;;15.30;98.20;;;;;;4590118;19;20018;-24
2023/05/05 03:49:46;;;;;;;5.63;2.93;;;15.30;98.50;;;;;;4590422;19;20432;-23
2023/05/05 03:51:19;;;;;;;5.33;2.63;;;15.30;98.40;;;;;;4590212;19;20018;-23
2023/05/05 03:52:51;;;;;;;6.37;2.90;;;15.30;98.50;;;;;;4589832;19;20387;-24
2023/05/05 03:54:22;;;;;;;8.93;3.70;;;15.30;98.40;;;;;;4589922;19;20019;-23
2023/05/05 03:55:53;;;;;;;5.72;2.90;;;15.30;98.60;;;;;;4590073;19;20039;-24
2023/05/05 03:57:26;;;;;;;6.07;2.92;;;15.30;98.60;;;;;;4590078;19;20014;-23
2023/05/05 03:58:57;;;;;;;6.40;2.50;;;15.30;98.70;;;;;;4589841;19;20007;-24
2023/05/05 04:00:28;;;;;;;4.72;2.70;;;15.30;98.60;;;;;;4590123;19;20031;-23
2023/05/05 04:01:59;;;;;;;5.57;2.85;;;15.30;98.60;;;;;;4590095;19;20455;-23
2023/05/05 04:03:32;;;;;;;5.83;3.60;;;15.30;98.80;;;;;;4591859;19;20010;-24
2023/05/05 04:05:04;;;;;;;7.80;4.25;;;15.30;98.90;;;;;;4590710;19;20011;-23
2023/05/05 04:06:36;;;;;;;6.93;3.03;;;15.30;98.70;;;;;;4591043;19;20014;-23
2023/05/05 04:08:08;;;;;;;5.83;3.13;;;15.30;98.70;;;;;;4590631;19;20010;-23
2023/05/05 04:09:43;;;;;;;4.40;2.67;;;15.30;98.80;;;;;;4589606;19;20388;-23
2023/05/05 04:11:15;;;;;;;7.60;3.43;;;15.30;98.80;;;;;;4590818;19;20060;-23
2023/05/05 04:12:46;;;;;;;6.78;3.08;;;15.30;98.80;;;;;;4590632;19;20078;-23
2023/05/05 04:14:18;;;;;;;7.60;3.13;;;15.30;98.90;;;;;;4589638;19;19999;-23
2023/05/05 04:15:50;;;;;;;;;;;15.30;98.90;;;;;;4590772;19;20053;-23
2023/05/05 04:17:21;;;;;;;6.43;2.97;;;15.30;99.10;;;;;;4589719;19;20329;-23
2023/05/05 04:18:52;;;;;;;6.50;3.13;;;15.30;98.90;;;;;;4589682;19;20025;-23
2023/05/05 04:20:23;;;;;;;7.45;3.47;;;15.30;98.80;;;;;;4590203;19;20011;-23
2023/05/05 04:21:54;;;;;;;4.85;2.53;;;15.30;98.80;;;;;;4589248;19;20082;-24
2023/05/05 04:23:28;;;;;;;6.37;3.17;;;15.30;98.80;;;;;;4588208;19;20014;-24
2023/05/05 04:25:00;;;;;;;7.10;3.20;;;15.30;98.90;;;;;;4589423;19;20039;-23
2023/05/05 04:26:34;;;;;;;6.93;3.50;;;15.30;99.00;;;;;;4589821;19;20014;-24
2023/05/05 04:28:07;;;;;;;5.63;3.03;;;15.30;99.00;;;;;;4589334;19;20080;-23
2023/05/05 04:29:38;;;;;;;5.78;2.83;;;15.30;99.10;;;;;;4588206;19;20015;-23
2023/05/05 04:31:10;;;;;;;10.48;3.20;;;15.20;99.20;;;;;;4589814;19;20013;-23
2023/05/05 04:32:43;;;;;;;8.93;2.97;;;15.20;99.30;;;;;;4589081;19;19998;-23
2023/05/05 04:34:14;;;;;;;5.85;2.97;;;15.20;99.20;;;;;;4589351;19;20414;-23
2023/05/05 04:35:46;;;;;;;8.18;3.88;;;15.30;99.40;;;;;;4589257;19;20007;-23
2023/05/05 04:37:19;;;;;;;8.83;3.37;;;15.20;99.40;;;;;;4589404;19;20468;-23
2023/05/05 04:38:50;;;;;;;;;;;15.30;99.40;;;;;;4590405;19;20002;-23
2023/05/05 04:40:22;;;;;;;5.30;2.70;;;15.30;99.50;;;;;;4589200;19;19942;-23
2023/05/05 04:41:58;;;;;;;6.83;3.20;;;15.30;99.50;;;;;;4588369;19;20042;-23
2023/05/05 04:43:29;;;;;;;6.30;3.63;;;15.30;99.60;;;;;;4588081;19;20015;-23
2023/05/05 04:45:01;;;;;;;6.20;3.60;;;15.30;99.60;;;;;;4588124;19;20010;-23
2023/05/05 04:46:34;;;;;;;5.93;3.13;;;15.30;99.70;;;;;;4588581;19;20031;-23
2023/05/05 04:48:07;;;;;;;8.27;3.60;;;15.40;99.70;;;;;;4588982;19;20022;-23
2023/05/05 04:49:40;;;;;;;7.60;3.60;;;15.40;99.70;;;;;;4587997;19;20027;-23
2023/05/05 04:51:12;;;;;;;7.27;3.30;;;15.30;99.70;;;;;;4589372;19;20014;-23
2023/05/05 04:52:43;;;;;;;4.50;2.20;;;15.30;99.80;;;;;;4588880;19;20010;-23
2023/05/05 04:54:18;;;;;;;6.33;2.90;;;15.30;99.80;;;;;;4589658;19;20019;-24
2023/05/05 04:55:51;;;;;;;7.83;2.93;;;15.30;99.80;;;;;;4589038;19;20495;-23
2023/05/05 04:57:24;;;;;;;6.07;2.87;;;15.40;99.80;;;;;;4588716;19;20391;-23
2023/05/05 04:58:55;;;;;;;;;;;15.40;99.80;;;;;;4594097;19;20106;-23
2023/05/05 05:00:27;;;;;;;7.17;2.93;;;15.40;99.90;;;;;;4593615;19;19940;-23
2023/05/05 05:01:58;;;;;;;6.00;2.95;;;15.40;99.80;;;;;;4594128;19;20062;-23
2023/05/05 05:03:30;;;;;;;7.22;3.28;;;15.40;99.90;;;;;;4593450;19;20011;-23
2023/05/05 05:05:01;;;;;;;6.83;2.77;;;15.40;99.90;;;;;;4593256;19;20011;-23
2023/05/05 05:06:33;;;;;;;6.68;3.40;;;15.40;99.90;;;;;;4593351;19;20006;-23
2023/05/05 05:08:05;;;;;;;5.35;3.20;;;15.40;99.80;;;;;;4593982;19;20025;-23
2023/05/05 05:09:36;;;;;;;6.72;3.30;;;15.40;99.90;;;;;;4591637;19;20031;-23
2023/05/05 05:11:08;;;;;;;7.83;4.00;;;15.30;99.90;;;;;;4593564;19;20007;-23
2023/05/05 05:12:40;;;;;;;7.80;3.08;;;15.30;99.90;;;;;;4593796;19;20007;-23
2023/05/05 05:14:12;;;;;;;7.67;3.70;;;15.30;99.90;;;;;;4593376;19;20365;-23
2023/05/05 05:15:45;;;;;;;7.93;3.00;;;15.30;99.90;;;;;;4593432;19;20006;-23
2023/05/05 05:17:19;;;;;;;6.30;3.45;;;15.40;99.90;;;;;;4593169;19;20357;-23
2023/05/05 05:18:51;;;;;;;8.97;3.47;;;15.40;99.90;;;;;;4593469;19;20015;-23
2023/05/05 05:20:22;;;;;;;6.28;3.03;;;15.40;99.90;;;;;;4593252;19;20010;-23
2023/05/05 05:21:54;;;;;;;7.00;3.47;;;15.40;99.90;;;;;;4593024;19;20476;-24
2023/05/05 05:23:26;;;;;;;6.73;3.20;;;15.50;99.90;;;;;;4592004;19;20010;-23
2023/05/05 05:24:58;;;;;;;6.90;3.27;;;15.50;99.90;;;;;;4592701;19;20028;-24
2023/05/05 05:26:30;;;;;;;6.05;2.97;;;15.50;99.90;;;;;;4592807;19;20558;-23
2023/05/05 05:28:03;;;;;;;7.90;3.60;;;15.60;99.90;;;;;;4592877;19;20363;-23
2023/05/05 05:29:35;;;;;;;8.60;4.00;;;15.60;99.90;;;;;;4591536;19;20893;-23
2023/05/05 05:31:06;;;;;;;7.80;4.03;;;15.60;99.90;;;;;;4592355;19;20088;-23
2023/05/05 05:32:39;;;;;;;5.97;4.90;;;14.50;99.90;;;;;;4592508;19;20014;-23
2023/05/05 05:34:10;;;;;;;5.88;3.92;;;13.30;99.90;;;;;;4592878;19;20421;-23
2023/05/05 05:35:41;;;;;;;6.35;4.05;;;12.60;99.90;;;;;;4593532;19;20058;-22
2023/05/05 05:37:14;;;;;;;6.03;4.77;;;12.30;99.90;;;;;;4592598;19;20006;-23
2023/05/05 05:38:48;;;;;;;7.53;5.10;;;12.10;99.90;;;;;;4591314;19;20532;-23
2023/05/05 05:40:20;;;;;;;7.40;5.03;;;12.00;99.90;;;;;;4592646;19;20433;-23
2023/05/05 05:41:51;;;;;;;6.93;4.43;;;12.00;99.90;;;;;;4589294;19;20477;-23
2023/05/05 05:43:25;;;;;;;6.33;4.60;;;12.00;99.90;;;;;;4590234;19;20348;-23
2023/05/05 05:45:00;;;;;;;6.83;4.87;;;12.00;99.90;;;;;;4591526;19;21029;-23
2023/05/05 05:46:31;;;;;;;7.93;6.00;;;12.00;99.90;;;;;;4592326;19;20433;-23
2023/05/05 05:48:02;;;;;;;6.90;4.88;;;12.00;99.90;;;;;;4593333;19;20459;-24
2023/05/05 05:49:35;;;;;;;7.33;4.67;;;12.00;99.90;;;;;;4591157;19;20002;-23
2023/05/05 05:51:06;;;;;;;8.38;4.65;;;12.00;99.90;;;;;;4593972;19;20480;-23
2023/05/05 05:52:38;;;;;;;6.47;4.57;;;12.00;99.90;;;;;;4592989;19;20027;-23
2023/05/05 05:54:10;;;;;;;6.23;4.70;;;12.00;99.90;;;;;;4592090;19;20497;-23
2023/05/05 05:55:45;;;;;;;7.60;4.90;;;12.00;99.90;;;;;;4592119;19;20807;-23
2023/05/05 05:57:23;;;;;;;7.60;4.70;;;12.00;99.90;;;;;;4592710;19;20447;-23
2023/05/05 05:58:57;;;;;;;8.63;4.50;;;12.00;99.90;;;;;;4591297;19;20421;-22
2023/05/05 06:00:28;;;;;;;6.90;4.38;;;11.90;99.90;;;;;;4591783;19;20835;-23
2023/05/05 06:02:00;;;;;;;6.85;4.95;;;12.00;99.90;;;;;;4592117;19;20010;-23
2023/05/05 06:03:32;;;;;;;6.87;4.77;;;11.90;99.90;;;;;;4593835;19;20018;-23
2023/05/05 06:05:06;;;;;;;5.97;4.50;;;12.00;99.90;;;;;;4592145;19;21094;-23
2023/05/05 06:06:38;;;;;;;6.67;5.00;;;11.90;99.90;;;;;;4591667;19;20044;-23
2023/05/05 06:08:11;;;;;;;6.67;4.50;;;11.90;99.90;;;;;;4591610;19;20433;-23
2023/05/05 06:09:42;;;;;;;7.15;4.97;;;12.00;99.90;;;;;;4588239;19;20510;-23
2023/05/05 06:11:14;;;;;;;7.30;4.90;;;12.00;99.90;;;;;;4592061;19;20066;-23
2023/05/05 06:12:46;;;;;;;6.33;4.60;;;12.00;99.90;;;;;;4591963;19;20417;-23
2023/05/05 06:14:17;;;;;;;7.63;4.57;;;12.00;99.90;;;;;;4591471;19;20451;-23
2023/05/05 06:15:49;;;;;;;7.10;4.47;;;12.00;99.90;;;;;;4591944;19;20363;-23
2023/05/05 06:17:20;;;;;;;7.43;5.35;;;12.00;99.90;;;;;;4593346;19;20109;-23
2023/05/05 06:18:53;;;;;;;8.37;5.23;;;12.00;99.90;;;;;;4592124;19;20018;-23
2023/05/05 06:20:30;;;;;;;7.57;5.77;;;12.10;99.90;;;;;;4591378;19;20536;-23
2023/05/05 06:22:04;;;;;;;8.23;5.23;;;12.00;99.90;;;;;;4592147;19;20421;-23
2023/05/05 06:23:38;;;;;;;7.50;5.33;;;12.10;99.90;;;;;;4591486;19;20808;-23
2023/05/05 06:25:11;;;;;;;7.07;5.40;;;12.10;99.90;;;;;;4591969;19;20472;-23
2023/05/05 06:26:42;;;;;;;7.80;4.78;;;12.20;99.90;;;;;;4591860;19;20456;-23
2023/05/05 06:28:15;;;;;;;6.72;5.03;;;12.10;99.90;;;;;;4592181;19;20010;-23
2023/05/05 06:29:47;;;;;;;9.10;4.77;;;12.20;99.90;;;;;;4590119;19;20456;-23
2023/05/05 06:31:19;;;;;;;8.37;4.00;;;12.40;99.90;;;;;;4593568;19;20791;-23
2023/05/05 06:32:54;;;;;;;8.87;4.20;;;12.80;99.90;;;;;;4592536;19;20852;-23
2023/05/05 06:34:25;;;;;;;7.28;4.47;;;13.10;99.90;;;;;;4591658;19;20433;-23
2023/05/05 06:35:57;;;;;;;8.53;3.73;;;13.30;99.90;;;;;;4591429;19;20445;-23
2023/05/05 06:37:31;;;;;;;6.27;4.00;;;13.60;99.90;;;;;;4593405;19;20441;-23
2023/05/05 06:39:02;;;;;;;10.03;4.20;;;13.80;99.90;;;;;;4591704;19;20528;-23
2023/05/05 06:40:36;;;;;;;6.77;4.23;;;14.00;99.90;;;;;;4591891;19;20011;-23
2023/05/05 06:42:08;;;;;;;;;;;14.20;99.90;;;;;;4590082;19;20030;-23
2023/05/05 06:43:41;;;;;;;9.55;4.22;;;14.30;99.90;;;;;;4591286;19;19921;-23
2023/05/05 06:45:15;;;;;;;7.20;4.23;;;14.40;99.90;;;;;;4591464;19;20014;-23
2023/05/05 06:46:47;;;;;;;7.90;4.70;;;14.60;99.90;;;;;;4591348;19;20017;-23
2023/05/05 06:48:20;;;;;;;9.05;3.85;;;14.60;99.90;;;;;;4592013;19;20010;-23
2023/05/05 06:49:52;;;;;;;8.60;4.50;;;14.70;99.90;;;;;;4588554;19;20011;-23
2023/05/05 06:51:24;;;;;;;10.10;4.25;;;14.80;99.90;;;;;;4591020;19;20018;-23
2023/05/05 06:52:55;;;;;;;6.67;3.83;;;14.90;99.90;;;;;;4591283;19;20022;-23
2023/05/05 06:54:27;;;;;;;7.57;4.47;;;14.90;99.90;;;;;;4592986;19;20014;-23
2023/05/05 06:56:00;;;;;;;8.90;3.70;;;15.10;99.90;;;;;;4590922;19;20023;-23
2023/05/05 06:57:31;;;;;;;6.00;3.90;;;15.20;99.90;;;;;;4591500;19;20018;-23
2023/05/05 06:59:05;;;;;;;7.25;3.67;;;15.30;99.90;;;;;;4592204;19;20385;-23
2023/05/05 07:00:39;;;;;;;6.53;3.80;;;15.40;99.90;;;;;;4593058;19;20017;-23
2023/05/05 07:02:11;;;;;;;7.77;4.27;;;15.40;99.90;;;;;;4591690;19;20058;-23
2023/05/05 07:03:42;;;;;;;6.57;3.75;;;15.50;99.90;;;;;;4593992;19;20017;-23
2023/05/05 07:05:15;;;;;;;8.85;5.00;;;15.40;99.90;;;;;;4590282;19;20370;-23
2023/05/05 07:06:47;;;;;;;7.15;3.72;;;15.50;99.90;;;;;;4590726;19;20045;-23
2023/05/05 07:08:18;;;;;;;6.57;4.07;;;15.50;99.90;;;;;;4590893;19;20015;-23
2023/05/05 07:09:51;;;;;;;7.88;3.88;;;15.50;99.90;;;;;;4590038;19;20045;-23
2023/05/05 07:11:24;;;;;;;7.57;3.58;;;15.50;99.90;;;;;;4591288;19;20010;-23
2023/05/05 07:12:55;;;;;;;7.88;4.55;;;15.50;99.90;;;;;;4591056;19;20026;-23
2023/05/05 07:14:26;;;;;;;8.93;4.43;;;15.50;99.90;;;;;;4590811;19;20017;-23
2023/05/05 07:15:58;;;;;;;7.80;3.95;;;15.50;99.90;;;;;;4590170;19;20178;-23
2023/05/05 07:17:30;;;;;;;7.05;4.03;;;15.60;99.90;;;;;;4590319;19;20445;-24
2023/05/05 07:19:04;;;;;;;6.57;4.40;;;15.60;99.90;;;;;;4590054;19;20011;-23
2023/05/05 07:20:36;;;;;;;6.05;4.22;;;15.60;99.90;;;;;;4589068;19;20037;-23
2023/05/05 07:22:09;;;;;;;8.73;4.23;;;15.70;99.90;;;;;;4590521;19;20366;-23
2023/05/05 07:23:41;;;;;;;9.10;5.27;;;15.70;99.90;;;;;;4590773;19;20025;-24
2023/05/05 07:25:13;;;;;;;10.00;4.93;;;15.70;99.90;;;;;;4590276;19;20078;-24
2023/05/05 07:26:45;;;;;;;6.70;4.13;;;15.70;99.90;;;;;;4590631;19;20062;-23
2023/05/05 07:28:18;;;;;;;6.95;3.75;;;15.80;99.90;;;;;;4590779;19;20010;-24
2023/05/05 07:29:50;;;;;;;8.88;3.83;;;15.80;99.90;;;;;;4591720;19;20390;-23
2023/05/05 07:31:27;;;;;;;6.90;4.32;;;15.80;99.90;;;;;;4589963;19;20006;-23
2023/05/05 07:32:59;;;;;;;7.88;4.30;;;15.80;99.90;;;;;;4590564;19;20489;-23
2023/05/05 07:34:33;;;;;;;11.60;4.47;;;15.80;99.90;;;;;;4592306;19;20010;-23
2023/05/05 07:36:05;;;;;;;7.25;4.85;;;15.80;99.90;;;;;;4592561;19;20010;-23
2023/05/05 07:37:36;;;;;;;10.75;4.47;;;15.80;99.90;;;;;;4592050;19;20105;-23
2023/05/05 07:39:08;;;;;;;;;;;15.90;99.90;;;;;;4593407;19;20035;-23
2023/05/05 07:40:45;;;;;;;8.07;3.85;;;15.90;99.90;;;;;;4590754;19;20278;-23
2023/05/05 07:42:19;;;;;;;8.45;4.50;;;15.90;99.90;;;;;;4589518;19;20022;-23
2023/05/05 07:44:03;;;;;;;6.97;4.13;;;15.90;99.90;;;;;;4589045;19;20022;-23
2023/05/05 07:45:42;;;;;;;7.68;3.88;;;15.90;99.90;;;;;;4591946;19;20020;-23
2023/05/05 07:47:15;;;;;;;8.02;3.80;;;15.90;99.90;;;;;;4592004;19;20397;-23
2023/05/05 07:48:51;;;;;;;6.15;3.40;;;15.90;99.90;;;;;;4592411;19;20039;-24
2023/05/05 07:50:23;;;;;;;9.38;5.07;;;16.00;99.90;;;;;;4591200;19;20010;-24
2023/05/05 07:51:55;;;;;;;10.05;5.28;;;15.90;99.90;;;;;;4591382;19;20015;-23
2023/05/05 07:53:27;;;;;;;7.87;4.80;;;16.00;99.90;;;;;;4592059;19;20036;-23
2023/05/05 07:54:58;;;;;;;8.23;5.03;;;16.00;99.90;;;;;;4592056;19;20468;-23
2023/05/05 07:56:30;;;;;;;;;;;16.00;99.90;;;;;;4591416;19;20048;-23
2023/05/05 07:58:02;;;;;;;7.72;4.25;;;16.00;99.90;;;;;;4590040;19;19933;-23
2023/05/05 07:59:34;;;;;;;;;;;16.00;99.90;;;;;;4592672;19;20015;-23
2023/05/05 08:01:05;;;;;;;9.70;4.45;;;16.00;99.90;;;;;;4591215;19;19918;-23
2023/05/05 08:02:37;;;;;;;6.65;4.35;;;16.10;99.90;;;;;;4588656;19;20011;-24
2023/05/05 08:04:09;;;;;;;7.05;4.57;;;16.20;99.90;;;;;;4589420;19;20011;-23
2023/05/05 08:05:41;;;;;;;7.38;5.03;;;16.20;99.90;;;;;;4590269;19;20014;-23
2023/05/05 08:07:14;;;;;;;11.20;6.20;;;16.10;99.90;;;;;;4589792;19;20437;-24
2023/05/05 08:08:47;;;;;;;9.07;5.47;;;16.10;99.90;;;;;;4589503;19;20472;-23
2023/05/05 08:10:21;;;;;;;8.55;5.15;;;16.00;99.90;;;;;;4587973;19;20015;-23